createdAt,value
2022-08-17T00:01:52.277Z,25.35
2022-08-17T00:04:20.720Z,25.08
2022-08-17T00:06:48.825Z,24.94
2022-08-17T00:09:18.340Z,25.11
2022-08-17T00:12:41.309Z,25.21
2022-08-17T00:14:35.148Z,25.01
2022-08-17T00:17:04.590Z,24.57
2022-08-17T00:19:32.938Z,24.75
2022-08-17T00:22:34.399Z,24.87
2022-08-17T00:24:48.377Z,24.89
2022-08-17T00:27:15.743Z,24.86
2022-08-17T00:29:45.453Z,24.68
2022-08-17T00:33:15.410Z,24.73
2022-08-17T00:35:04.913Z,24.44
2022-08-17T00:37:32.659Z,24.81
2022-08-17T00:40:00.085Z,24.82
2022-08-17T00:42:31.074Z,24.85
2022-08-17T00:44:59.160Z,24.66
2022-08-17T00:47:26.618Z,24.83
2022-08-17T00:49:54.162Z,24.94
2022-08-17T00:52:23.107Z,24.64
2022-08-17T00:54:52.335Z,24.46
2022-08-17T00:57:29.001Z,24.52
2022-08-17T01:00:02.743Z,24.85
2022-08-17T01:02:34.218Z,24.59
2022-08-17T01:05:02.877Z,24.29
2022-08-17T01:07:30.287Z,24.55
2022-08-17T01:09:57.645Z,24.46
2022-08-17T01:12:25.279Z,24.48
2022-08-17T01:14:52.657Z,24.47
2022-08-17T01:17:20.837Z,24.57
2022-08-17T01:19:48.452Z,24.69
2022-08-17T01:22:23.447Z,24.47
2022-08-17T01:24:53.656Z,24.66
2022-08-17T01:27:21.192Z,24.51
2022-08-17T01:29:52.208Z,24.53
2022-08-17T01:32:19.969Z,24.52
2022-08-17T01:34:50.680Z,24.49
2022-08-17T01:37:19.364Z,24.42
2022-08-17T01:39:56.105Z,24.37
2022-08-17T01:42:40.407Z,24.58
2022-08-17T01:45:14.176Z,24.53
2022-08-17T01:47:41.740Z,24.55
2022-08-17T01:50:11.387Z,24.41
2022-08-17T01:52:38.959Z,23.76
2022-08-17T01:55:06.600Z,23.54
2022-08-17T01:57:34.447Z,24.21
2022-08-17T02:00:02.026Z,24.15
2022-08-17T02:02:38.521Z,24.20
2022-08-17T02:05:06.749Z,24.04
2022-08-17T02:07:59.919Z,23.92
2022-08-17T02:10:24.290Z,23.88
2022-08-17T02:13:02.394Z,24.10
2022-08-17T02:15:30.145Z,24.22
2022-08-17T02:17:57.590Z,24.10
2022-08-17T02:20:41.620Z,24.26
2022-08-17T02:23:11.899Z,23.84
2022-08-17T02:25:39.316Z,24.11
2022-08-17T02:28:06.702Z,24.21
2022-08-17T02:31:00.719Z,24.10
2022-08-17T02:33:22.103Z,24.07
2022-08-17T02:35:49.809Z,23.76
2022-08-17T02:38:17.431Z,23.67
2022-08-17T02:40:44.989Z,23.78
2022-08-17T02:43:13.750Z,23.61
2022-08-17T02:45:41.132Z,23.65
2022-08-17T02:48:08.482Z,23.87
2022-08-17T02:50:36.191Z,24.00
2022-08-17T02:53:04.782Z,24.16
2022-08-17T02:55:38.125Z,24.06
2022-08-17T02:58:06.144Z,24.08
2022-08-17T03:00:35.491Z,24.08
2022-08-17T03:03:04.429Z,24.10
2022-08-17T03:05:33.432Z,23.51
2022-08-17T03:08:00.807Z,23.71
2022-08-17T03:10:29.698Z,23.76
2022-08-17T03:12:57.346Z,24.00
2022-08-17T03:15:26.581Z,23.97
2022-08-17T03:17:54.625Z,24.00
2022-08-17T03:20:22.365Z,23.44
2022-08-17T03:22:53.240Z,23.59
2022-08-17T03:25:27.161Z,23.41
2022-08-17T03:27:55.043Z,23.39
2022-08-17T03:30:22.684Z,23.05
2022-08-17T03:32:51.502Z,23.46
2022-08-17T03:35:20.915Z,23.85
2022-08-17T03:37:48.355Z,23.83
2022-08-17T03:40:34.585Z,23.83
2022-08-17T03:43:15.500Z,23.74
2022-08-17T03:46:02.198Z,23.50
2022-08-17T03:48:48.285Z,23.33
2022-08-17T03:51:41.931Z,23.22
2022-08-17T03:54:28.327Z,23.44
2022-08-17T03:56:59.093Z,23.41
2022-08-17T03:59:26.549Z,23.36
2022-08-17T04:01:54.576Z,23.62
2022-08-17T04:04:27.764Z,23.71
2022-08-17T04:06:55.525Z,23.46
2022-08-17T04:09:23.190Z,23.54
2022-08-17T04:11:50.549Z,23.26
2022-08-17T04:14:17.925Z,23.44
2022-08-17T04:16:45.570Z,23.66
2022-08-17T04:19:12.981Z,23.58
2022-08-17T04:21:40.498Z,23.39
2022-08-17T04:24:08.138Z,23.67
2022-08-17T04:26:52.547Z,23.71
2022-08-17T04:29:21.384Z,23.89
2022-08-17T04:31:48.769Z,23.93
2022-08-17T04:34:19.675Z,23.80
2022-08-17T04:36:50.379Z,23.92
2022-08-17T04:39:18.003Z,24.05
2022-08-17T04:42:04.320Z,24.16
2022-08-17T04:44:37.835Z,24.08
2022-08-17T04:47:07.160Z,24.12
2022-08-17T04:49:38.479Z,24.41
2022-08-17T04:52:05.856Z,24.45
2022-08-17T04:54:33.862Z,24.29
2022-08-17T04:57:01.570Z,24.51
2022-08-17T04:59:28.953Z,24.28
2022-08-17T05:01:56.344Z,24.51
2022-08-17T05:04:33.779Z,24.85
2022-08-17T05:07:04.236Z,25.11
2022-08-17T05:09:31.883Z,25.20
2022-08-17T05:12:02.576Z,24.81
2022-08-17T05:14:32.335Z,25.40
2022-08-17T05:17:01.844Z,25.42
2022-08-17T05:19:34.745Z,25.61
2022-08-17T05:22:05.766Z,25.85
2022-08-17T05:24:39.074Z,25.90
2022-08-17T05:27:15.897Z,26.05
2022-08-17T05:29:46.599Z,26.15
2022-08-17T05:32:39.480Z,26.13
2022-08-17T05:35:01.672Z,26.44
2022-08-17T05:37:29.319Z,26.71
2022-08-17T05:39:56.739Z,26.78
2022-08-17T05:42:24.238Z,27.08
2022-08-17T05:44:52.641Z,27.45
2022-08-17T05:47:20.098Z,27.39
2022-08-17T05:49:49.199Z,27.56
2022-08-17T05:52:44.695Z,27.81
2022-08-17T05:55:23.802Z,28.04
2022-08-17T05:57:56.119Z,28.50
2022-08-17T06:01:04.181Z,28.57
2022-08-17T06:03:34.414Z,28.87
2022-08-17T06:06:32.395Z,29.13
2022-08-17T06:09:33.949Z,29.15
2022-08-17T06:12:19.788Z,29.45
2022-08-17T06:15:10.683Z,29.76
2022-08-17T06:17:38.202Z,30.05
2022-08-17T06:20:09.633Z,30.38
2022-08-17T06:22:40.260Z,30.82
2022-08-17T06:25:13.903Z,31.12
2022-08-17T06:27:53.530Z,31.55
2022-08-17T06:30:24.706Z,32.05
2022-08-17T06:32:53.312Z,32.58
2022-08-17T06:35:35.669Z,33.18
2022-08-17T06:38:35.001Z,33.89
2022-08-17T06:41:25.237Z,34.65
2022-08-17T06:44:10.046Z,35.53
2022-08-17T06:46:40.181Z,36.81
2022-08-17T06:49:44.950Z,36.11
2022-08-17T06:52:42.120Z,36.12
2022-08-17T06:55:17.749Z,36.59
2022-08-17T06:57:50.215Z,38.36
2022-08-17T07:00:23.192Z,40.37
2022-08-17T07:03:12.754Z,42.00
2022-08-17T07:05:46.261Z,43.07
2022-08-17T07:08:20.316Z,41.57
2022-08-17T07:10:55.741Z,44.53
2022-08-17T07:13:57.444Z,45.56
2022-08-17T07:16:33.252Z,45.29
2022-08-17T07:19:00.666Z,46.53
2022-08-17T07:21:42.193Z,42.42
2022-08-17T07:24:45.144Z,45.06
2022-08-17T07:27:21.217Z,46.73
2022-08-17T07:29:49.460Z,47.84
2022-08-17T07:32:21.121Z,48.43
2022-08-17T07:35:15.344Z,48.81
2022-08-17T07:37:46.292Z,49.01
2022-08-17T07:40:26.505Z,48.63
2022-08-17T07:43:35.874Z,49.59
2022-08-17T07:46:40.271Z,49.41
2022-08-17T07:49:11.199Z,49.62
2022-08-17T07:51:42.537Z,49.02
2022-08-17T07:54:16.075Z,49.76
2022-08-17T07:56:46.027Z,50.39
2022-08-17T07:59:23.407Z,50.50
2022-08-17T08:01:55.530Z,50.58
2022-08-17T08:04:58.900Z,49.13
2022-08-17T08:07:18.885Z,48.23
2022-08-17T08:10:06.507Z,47.16
2022-08-17T08:12:46.921Z,45.26
2022-08-17T08:15:18.976Z,44.95
2022-08-17T08:17:51.898Z,46.82
2022-08-17T08:20:52.200Z,48.26
2022-08-17T08:23:33.357Z,49.34
2022-08-17T08:26:39.367Z,49.04
2022-08-17T08:29:28.227Z,42.97
2022-08-17T08:32:11.790Z,43.61
2022-08-17T08:35:03.730Z,46.00
2022-08-17T08:38:00.909Z,46.44
2022-08-17T08:40:43.407Z,45.34
2022-08-17T08:43:29.674Z,46.18
2022-08-17T08:46:14.890Z,47.18
2022-08-17T08:49:12.377Z,46.71
2022-08-17T08:51:52.997Z,43.49
2022-08-17T08:54:33.375Z,45.03
2022-08-17T08:57:32.850Z,44.88
2022-08-17T09:00:14.831Z,45.88
2022-08-17T09:03:04.050Z,47.08
2022-08-17T09:06:03.733Z,48.08
2022-08-17T09:08:52.880Z,47.25
2022-08-17T09:12:02.521Z,43.79
2022-08-17T09:14:46.834Z,44.35
2022-08-17T09:17:18.647Z,42.88
2022-08-17T09:20:28.237Z,45.16
2022-08-17T09:23:08.818Z,45.51
2022-08-17T09:25:49.711Z,46.02
2022-08-17T09:28:20.263Z,43.07
2022-08-17T09:30:50.152Z,43.39
2022-08-17T09:33:22.808Z,45.52
2022-08-17T09:36:04.809Z,44.32
2022-08-17T09:38:54.619Z,45.63
2022-08-17T09:41:26.413Z,43.94
2022-08-17T09:43:54.809Z,44.03
2022-08-17T09:46:25.390Z,45.50
2022-08-17T09:49:07.559Z,46.94
2022-08-17T09:51:36.126Z,45.82
2022-08-17T09:54:34.883Z,46.88
2022-08-17T09:57:27.978Z,45.72
2022-08-17T10:00:09.860Z,45.88
2022-08-17T10:03:04.518Z,45.72
2022-08-17T10:05:43.192Z,47.88
2022-08-17T10:08:27.790Z,45.78
2022-08-17T10:11:33.518Z,47.52
2022-08-17T10:14:36.914Z,47.64
2022-08-17T10:17:13.647Z,46.07
2022-08-17T10:19:55.237Z,45.71
2022-08-17T10:22:53.358Z,47.31
2022-08-17T10:25:56.471Z,45.01
2022-08-17T10:28:29.744Z,47.80
2022-08-17T10:31:23.432Z,45.20
2022-08-17T10:33:50.937Z,45.09
2022-08-17T10:36:26.719Z,46.65
2022-08-17T10:39:10.931Z,47.85
2022-08-17T10:41:46.796Z,46.90
2022-08-17T10:44:39.780Z,45.10
2022-08-17T10:47:09.346Z,38.80
2022-08-17T10:49:53.813Z,37.45
2022-08-17T10:52:26.016Z,37.61
2022-08-17T10:54:58.558Z,36.74
2022-08-17T10:57:31.985Z,36.60
2022-08-17T11:00:00.789Z,36.78
2022-08-17T11:02:50.080Z,35.87
2022-08-17T11:05:22.232Z,36.18
2022-08-17T11:08:17.891Z,35.53
2022-08-17T11:11:07.234Z,35.37
2022-08-17T11:13:53.148Z,35.57
2022-08-17T11:16:39.630Z,34.27
2022-08-17T11:19:41.593Z,34.18
2022-08-17T11:22:33.348Z,34.56
2022-08-17T11:25:16.156Z,33.80
2022-08-17T11:27:44.436Z,34.18
2022-08-17T11:30:14.206Z,34.31
2022-08-17T11:32:48.010Z,33.83
2022-08-17T11:35:20.516Z,33.60
2022-08-17T11:38:18.513Z,33.44
2022-08-17T11:40:58.970Z,33.53
2022-08-17T11:43:45.681Z,33.38
2022-08-17T11:46:22.990Z,33.22
2022-08-17T11:49:12.044Z,33.66
2022-08-17T11:52:01.578Z,33.67
2022-08-17T11:54:36.152Z,33.62
2022-08-17T11:57:42.072Z,33.36
2022-08-17T12:00:39.753Z,33.92
2022-08-17T12:03:31.717Z,33.82
2022-08-17T12:06:13.449Z,34.26
2022-08-17T12:08:43.419Z,34.23
2022-08-17T12:11:12.210Z,33.89
2022-08-17T12:13:46.794Z,33.30
2022-08-17T12:16:18.427Z,33.30
2022-08-17T12:18:53.497Z,32.83
2022-08-17T12:21:35.973Z,33.01
2022-08-17T12:24:16.005Z,33.34
2022-08-17T12:26:45.192Z,33.30
2022-08-17T12:29:18.276Z,33.64
2022-08-17T12:32:03.801Z,33.54
2022-08-17T12:34:36.083Z,33.83
2022-08-17T12:37:12.865Z,33.64
2022-08-17T12:39:40.256Z,33.88
2022-08-17T12:42:29.334Z,33.96
2022-08-17T12:44:56.983Z,34.17
2022-08-17T12:47:24.661Z,34.13
2022-08-17T12:50:08.188Z,34.42
2022-08-17T12:53:01.145Z,34.33
2022-08-17T12:55:32.479Z,34.53
2022-08-17T12:58:01.764Z,34.69
2022-08-17T13:00:34.291Z,34.53
2022-08-17T13:03:07.691Z,34.69
2022-08-17T13:05:43.541Z,34.49
2022-08-17T13:08:16.277Z,34.18
2022-08-17T13:10:43.916Z,34.23
2022-08-17T13:13:26.346Z,34.22
2022-08-17T13:16:09.510Z,33.91
2022-08-17T13:18:40.072Z,33.78
2022-08-17T13:21:23.605Z,33.72
2022-08-17T13:23:58.033Z,34.00
2022-08-17T13:26:30.669Z,33.76
2022-08-17T13:28:58.398Z,34.32
2022-08-17T13:31:27.880Z,34.11
2022-08-17T13:34:26.958Z,33.67
2022-08-17T13:37:27.072Z,34.11
2022-08-17T13:40:10.987Z,34.48
2022-08-17T13:42:53.334Z,34.21
2022-08-17T13:45:35.722Z,34.36
2022-08-17T13:48:16.949Z,33.74
2022-08-17T13:50:49.598Z,34.00
2022-08-17T13:53:40.234Z,34.17
2022-08-17T13:56:37.234Z,34.86
2022-08-17T13:59:01.489Z,34.46
2022-08-17T14:01:41.430Z,34.08
2022-08-17T14:04:19.497Z,33.83
2022-08-17T14:06:51.740Z,33.82
2022-08-17T14:09:24.270Z,33.65
2022-08-17T14:11:51.794Z,33.79
2022-08-17T14:14:19.181Z,33.67
2022-08-17T14:16:46.810Z,33.79
2022-08-17T14:19:14.333Z,34.20
2022-08-17T14:21:42.991Z,34.59
2022-08-17T14:24:30.517Z,34.58
2022-08-17T14:26:58.489Z,34.32
2022-08-17T14:29:27.971Z,33.70
2022-08-17T14:31:55.808Z,33.71
2022-08-17T14:34:23.834Z,33.79
2022-08-17T14:36:51.851Z,34.09
2022-08-17T14:39:19.274Z,34.50
2022-08-17T14:41:46.627Z,34.32
2022-08-17T14:44:14.408Z,34.50
2022-08-17T14:46:43.188Z,34.35
2022-08-17T14:49:11.352Z,34.50
2022-08-17T14:51:44.226Z,34.58
2022-08-17T14:54:32.791Z,34.28
2022-08-17T14:57:11.552Z,34.33
2022-08-17T14:59:54.550Z,34.36
2022-08-17T15:02:30.140Z,34.17
2022-08-17T15:05:00.014Z,33.81
2022-08-17T15:07:30.946Z,33.76
2022-08-17T15:10:02.146Z,33.69
2022-08-17T15:12:33.295Z,33.60
2022-08-17T15:15:05.123Z,33.41
2022-08-17T15:17:43.811Z,33.86
2022-08-17T15:20:17.616Z,33.94
2022-08-17T15:22:45.692Z,33.88
2022-08-17T15:25:13.118Z,33.65
2022-08-17T15:27:40.600Z,33.81
2022-08-17T15:30:08.861Z,33.54
2022-08-17T15:32:38.200Z,33.60
2022-08-17T15:35:06.240Z,33.80
2022-08-17T15:37:33.887Z,33.67
2022-08-17T15:40:01.413Z,33.84
2022-08-17T15:42:29.373Z,34.26
2022-08-17T15:44:57.054Z,34.78
2022-08-17T15:47:24.446Z,34.21
2022-08-17T15:49:55.448Z,33.62
2022-08-17T15:52:27.313Z,34.01
2022-08-17T15:54:56.280Z,33.79
2022-08-17T15:57:24.588Z,33.81
2022-08-17T15:59:58.519Z,33.64
2022-08-17T16:03:13.738Z,33.38
2022-08-17T16:05:19.896Z,34.00
2022-08-17T16:07:48.316Z,34.20
2022-08-17T16:10:19.006Z,34.31
2022-08-17T16:12:47.930Z,33.92
2022-08-17T16:15:16.259Z,33.22
2022-08-17T16:17:43.663Z,33.15
2022-08-17T16:20:20.482Z,33.91
2022-08-17T16:22:49.528Z,33.08
2022-08-17T16:25:20.212Z,33.74
2022-08-17T16:27:49.246Z,33.44
2022-08-17T16:30:17.842Z,33.66
2022-08-17T16:32:45.439Z,33.45
2022-08-17T16:35:17.268Z,33.27
2022-08-17T16:37:45.648Z,33.04
2022-08-17T16:40:14.731Z,33.39
2022-08-17T16:42:43.387Z,33.19
2022-08-17T16:45:13.087Z,33.38
2022-08-17T16:47:41.150Z,33.30
2022-08-17T16:50:10.008Z,33.48
2022-08-17T16:52:38.181Z,33.08
2022-08-17T16:55:06.864Z,32.81
2022-08-17T16:57:34.996Z,33.37
2022-08-17T17:00:02.874Z,33.42
2022-08-17T17:02:32.166Z,33.34
2022-08-17T17:05:42.851Z,32.86
2022-08-17T17:08:12.806Z,33.17
2022-08-17T17:10:46.019Z,32.72
2022-08-17T17:13:29.119Z,33.09
2022-08-17T17:16:06.636Z,33.46
2022-08-17T17:18:50.963Z,33.34
2022-08-17T17:21:19.305Z,33.26
2022-08-17T17:23:54.297Z,33.23
2022-08-17T17:26:28.482Z,33.07
2022-08-17T17:28:56.069Z,33.01
2022-08-17T17:31:23.861Z,32.87
2022-08-17T17:34:03.778Z,32.90
2022-08-17T17:36:42.966Z,32.89
2022-08-17T17:39:17.299Z,32.83
2022-08-17T17:42:07.742Z,32.69
2022-08-17T17:44:38.393Z,32.53
2022-08-17T17:47:06.240Z,32.38
2022-08-17T17:49:38.612Z,32.28
2022-08-17T17:52:26.589Z,32.20
2022-08-17T17:55:15.681Z,32.00
2022-08-17T17:58:07.541Z,32.01
2022-08-17T18:00:54.890Z,31.78
2022-08-17T18:03:50.472Z,31.47
2022-08-17T18:06:45.487Z,31.63
2022-08-17T18:10:01.403Z,31.60
2022-08-17T18:12:49.327Z,31.33
2022-08-17T18:15:16.973Z,31.18
2022-08-17T18:18:15.978Z,31.00
2022-08-17T18:20:53.714Z,30.86
2022-08-17T18:23:28.018Z,30.90
2022-08-17T18:25:56.289Z,30.80
2022-08-17T18:28:35.753Z,30.62
2022-08-17T18:31:15.274Z,30.62
2022-08-17T18:33:47.409Z,30.37
2022-08-17T18:36:36.359Z,30.43
2022-08-17T18:39:10.981Z,30.45
2022-08-17T18:41:46.799Z,30.30
2022-08-17T18:44:20.410Z,30.29
2022-08-17T18:46:47.996Z,30.43
2022-08-17T18:49:26.395Z,30.25
2022-08-17T18:52:11.995Z,30.05
2022-08-17T18:54:39.292Z,30.11
2022-08-17T18:57:07.069Z,30.16
2022-08-17T18:59:40.030Z,30.00
2022-08-17T19:02:21.627Z,29.80
2022-08-17T19:05:06.907Z,29.71
2022-08-17T19:07:38.541Z,29.60
2022-08-17T19:10:16.831Z,29.62
2022-08-17T19:12:53.097Z,29.60
2022-08-17T19:15:34.584Z,29.72
2022-08-17T19:18:12.083Z,29.37
2022-08-17T19:20:45.378Z,29.56
2022-08-17T19:23:16.769Z,29.49
2022-08-17T19:25:50.043Z,29.30
2022-08-17T19:28:33.142Z,29.41
2022-08-17T19:31:04.534Z,29.30
2022-08-17T19:33:32.179Z,29.04
2022-08-17T19:36:32.851Z,29.15
2022-08-17T19:39:06.300Z,29.07
2022-08-17T19:41:50.608Z,29.04
2022-08-17T19:44:41.306Z,29.09
2022-08-17T19:47:54.928Z,29.01
2022-08-17T19:50:41.520Z,28.86
2022-08-17T19:53:18.496Z,28.41
2022-08-17T19:56:00.910Z,28.29
2022-08-17T19:58:37.333Z,28.69
2022-08-17T20:01:05.813Z,28.35
2022-08-17T20:03:37.818Z,28.56
2022-08-17T20:06:13.175Z,28.55
2022-08-17T20:08:57.047Z,28.41
2022-08-17T20:11:30.296Z,28.35
2022-08-17T20:14:05.136Z,28.67
2022-08-17T20:16:33.532Z,28.40
2022-08-17T20:19:08.228Z,27.89
2022-08-17T20:21:58.812Z,28.15
2022-08-17T20:24:37.769Z,28.25
2022-08-17T20:27:12.507Z,28.25
2022-08-17T20:30:10.419Z,28.06
2022-08-17T20:32:51.917Z,27.69
2022-08-17T20:35:25.573Z,27.90
2022-08-17T20:38:01.458Z,27.73
2022-08-17T20:40:53.690Z,27.32
2022-08-17T20:43:33.552Z,27.20
2022-08-17T20:46:38.116Z,27.65
2022-08-17T20:49:11.140Z,27.67
2022-08-17T20:52:00.589Z,27.70
2022-08-17T20:54:57.544Z,27.70
2022-08-17T20:57:31.233Z,27.82
2022-08-17T21:00:15.991Z,27.39
2022-08-17T21:02:45.870Z,27.61
2022-08-17T21:05:59.901Z,27.23
2022-08-17T21:08:30.573Z,27.31
2022-08-17T21:10:58.176Z,27.40
2022-08-17T21:13:30.054Z,27.24
2022-08-17T21:16:38.839Z,27.31
2022-08-17T21:19:31.419Z,27.22
2022-08-17T21:22:11.196Z,27.48
2022-08-17T21:24:52.899Z,26.82
2022-08-17T21:27:27.456Z,26.72
2022-08-17T21:30:10.097Z,26.77
2022-08-17T21:32:39.677Z,26.72
2022-08-17T21:35:21.610Z,26.70
2022-08-17T21:37:50.430Z,26.72
2022-08-17T21:40:26.583Z,26.73
2022-08-17T21:42:58.059Z,26.59
2022-08-17T21:45:36.604Z,26.55
2022-08-17T21:48:22.721Z,26.36
2022-08-17T21:51:12.772Z,26.42
2022-08-17T21:53:48.260Z,26.52
2022-08-17T21:56:41.864Z,26.48
2022-08-17T21:59:20.008Z,26.61
2022-08-17T22:01:55.853Z,26.85
2022-08-17T22:04:34.081Z,26.70
2022-08-17T22:07:03.450Z,26.71
2022-08-17T22:09:32.169Z,26.87
2022-08-17T22:12:06.758Z,26.57
2022-08-17T22:14:52.506Z,26.75
2022-08-17T22:17:28.557Z,26.68
2022-08-17T22:19:57.954Z,26.61
2022-08-17T22:22:27.025Z,26.64
2022-08-17T22:24:58.173Z,26.62
2022-08-17T22:28:05.390Z,26.52
2022-08-17T22:30:36.614Z,26.47
2022-08-17T22:33:42.047Z,26.46
2022-08-17T22:36:12.133Z,26.41
2022-08-17T22:38:41.402Z,26.72
2022-08-17T22:41:26.238Z,26.36
2022-08-17T22:43:53.892Z,26.33
2022-08-17T22:46:21.334Z,26.23
2022-08-17T22:48:52.806Z,25.77
2022-08-17T22:51:22.237Z,26.33
2022-08-17T22:54:19.993Z,26.35
2022-08-17T22:57:18.724Z,25.83
2022-08-17T22:59:47.613Z,25.86
2022-08-17T23:02:21.092Z,26.18
2022-08-17T23:04:51.481Z,25.40
2022-08-17T23:07:20.244Z,25.74
2022-08-17T23:09:47.606Z,25.91
2022-08-17T23:12:17.798Z,25.83
2022-08-17T23:14:51.315Z,26.13
2022-08-17T23:17:18.693Z,26.27
2022-08-17T23:19:46.336Z,25.96
2022-08-17T23:22:13.712Z,25.82
2022-08-17T23:24:44.533Z,26.09
2022-08-17T23:27:12.322Z,26.12
2022-08-17T23:29:41.378Z,25.62
2022-08-17T23:32:11.164Z,25.68
2022-08-17T23:34:39.234Z,25.26
2022-08-17T23:37:06.974Z,25.09
2022-08-17T23:39:34.728Z,25.02
2022-08-17T23:42:05.189Z,25.55
2022-08-17T23:44:33.716Z,25.59
2022-08-17T23:47:03.586Z,25.34
2022-08-17T23:49:31.392Z,25.14
2022-08-17T23:51:59.671Z,25.49
2022-08-17T23:54:35.304Z,25.44
2022-08-17T23:57:04.149Z,25.66
2022-08-17T23:59:33.806Z,25.63
